Airport Name : Coonabarabran

Other Name : Coonabarabran

ICAO : YCBB

IATA : COJ

FAA :

Latitude : -31.3325

Longitude : 149.267222

Country : Australia

Local Date and Time : 02 Dec 2020 05:12

 

TAF (Terminal Aerodrome Forecast)

 

METAR (METeorological Aerodrome Report)

YCBB 011700Z AUTO 21011KT 9999 // NCD 23/14 Q1014

YCBB 011600Z AUTO 21008KT 9999 // NCD 25/14 Q1014

YCBB 011500Z AUTO 20008KT 9999 // NCD 26/13 Q1014

To Charter a Jet Click here.